Augusta Springs, Virginia
Current Conditions -  °F | °C
As of 4:55 AM on Saturday 01 Nov 2014 (Local Time) from KW13 Reporting Station
Overcast Overcast  
Wind Chill: 36°   Ceiling: 1500
Heat Index: 40°   Visibility: 7mi
Dew Point: 39°   Wind: 7mph
Humidity: 94%   Direction: 350°N
Pressure: 29.78"   Gusts: NA
Location:  38.1°N, 79.32°W
Report Text: KW13 010855Z AUTO 35006KT 7SM SCT007 BKN015 OVC035 05/04 A2978 RMK AO1 T00470038
Loading
Personal Weather Stations






























Interactive Weather Map
Tropical Storm Tracking
New forecast layout! Learn more

10-Day Weather Forecast

Advertisements
Track Severe Weather on mobile